sensor_id;sensor_type;location;lat;lon;timestamp;P1;durP1;ratioP1;P2;durP2;ratioP2
7657;SDS011;8462;53.156;8.220;2022-11-21T00:00:30;20.53;;;11.70;;
7657;SDS011;8462;53.156;8.220;2022-11-21T00:02:58;19.30;;;11.17;;
7657;SDS011;8462;53.156;8.220;2022-11-21T00:05:26;17.60;;;11.73;;
7657;SDS011;8462;53.156;8.220;2022-11-21T00:07:54;19.30;;;11.90;;
7657;SDS011;8462;53.156;8.220;2022-11-21T00:10:21;16.80;;;11.07;;
7657;SDS011;8462;53.156;8.220;2022-11-21T00:12:51;16.97;;;11.93;;
7657;SDS011;8462;53.156;8.220;2022-11-21T00:15:19;18.90;;;11.00;;
7657;SDS011;8462;53.156;8.220;2022-11-21T00:17:47;20.50;;;11.53;;
7657;SDS011;8462;53.156;8.220;2022-11-21T00:20:15;21.17;;;12.50;;
7657;SDS011;8462;53.156;8.220;2022-11-21T00:22:42;17.73;;;11.70;;
7657;SDS011;8462;53.156;8.220;2022-11-21T00:25:09;19.63;;;12.33;;
7657;SDS011;8462;53.156;8.220;2022-11-21T00:27:36;18.60;;;11.40;;
7657;SDS011;8462;53.156;8.220;2022-11-21T00:30:04;18.67;;;11.90;;
7657;SDS011;8462;53.156;8.220;2022-11-21T00:32:32;20.67;;;12.20;;
7657;SDS011;8462;53.156;8.220;2022-11-21T00:35:01;20.93;;;12.10;;
7657;SDS011;8462;53.156;8.220;2022-11-21T00:37:28;17.90;;;10.50;;
7657;SDS011;8462;53.156;8.220;2022-11-21T00:39:54;18.63;;;11.27;;
7657;SDS011;8462;53.156;8.220;2022-11-21T00:42:21;17.63;;;11.17;;
7657;SDS011;8462;53.156;8.220;2022-11-21T00:44:48;16.00;;;11.30;;
7657;SDS011;8462;53.156;8.220;2022-11-21T00:47:15;19.50;;;11.67;;
7657;SDS011;8462;53.156;8.220;2022-11-21T00:49:42;19.50;;;11.73;;
7657;SDS011;8462;53.156;8.220;2022-11-21T00:52:10;18.57;;;11.13;;
7657;SDS011;8462;53.156;8.220;2022-11-21T00:54:37;19.47;;;11.57;;
7657;SDS011;8462;53.156;8.220;2022-11-21T00:57:04;17.40;;;11.17;;
7657;SDS011;8462;53.156;8.220;2022-11-21T00:59:31;16.47;;;10.83;;
7657;SDS011;8462;53.156;8.220;2022-11-21T01:01:57;17.73;;;10.97;;
7657;SDS011;8462;53.156;8.220;2022-11-21T01:04:24;19.67;;;10.50;;
7657;SDS011;8462;53.156;8.220;2022-11-21T01:06:55;20.53;;;10.70;;
7657;SDS011;8462;53.156;8.220;2022-11-21T01:09:23;20.80;;;11.73;;
7657;SDS011;8462;53.156;8.220;2022-11-21T01:11:50;17.43;;;11.20;;
7657;SDS011;8462;53.156;8.220;2022-11-21T01:14:17;19.10;;;11.60;;
7657;SDS011;8462;53.156;8.220;2022-11-21T01:16:44;16.83;;;10.70;;
7657;SDS011;8462;53.156;8.220;2022-11-21T01:19:11;18.27;;;10.53;;
7657;SDS011;8462;53.156;8.220;2022-11-21T01:21:38;17.77;;;11.53;;
7657;SDS011;8462;53.156;8.220;2022-11-21T01:24:05;16.03;;;11.17;;
7657;SDS011;8462;53.156;8.220;2022-11-21T01:26:33;17.60;;;11.73;;
7657;SDS011;8462;53.156;8.220;2022-11-21T01:29:02;19.40;;;11.77;;
7657;SDS011;8462;53.156;8.220;2022-11-21T01:31:29;18.03;;;11.47;;
7657;SDS011;8462;53.156;8.220;2022-11-21T01:33:57;20.40;;;11.37;;
7657;SDS011;8462;53.156;8.220;2022-11-21T01:36:25;19.90;;;11.23;;
7657;SDS011;8462;53.156;8.220;2022-11-21T01:38:54;18.97;;;11.33;;
7657;SDS011;8462;53.156;8.220;2022-11-21T01:41:23;21.57;;;12.43;;
7657;SDS011;8462;53.156;8.220;2022-11-21T01:43:52;16.70;;;10.83;;
7657;SDS011;8462;53.156;8.220;2022-11-21T01:46:19;21.53;;;12.30;;
7657;SDS011;8462;53.156;8.220;2022-11-21T01:48:48;18.70;;;11.83;;
7657;SDS011;8462;53.156;8.220;2022-11-21T01:51:20;20.13;;;10.90;;
7657;SDS011;8462;53.156;8.220;2022-11-21T01:53:51;15.83;;;10.67;;
7657;SDS011;8462;53.156;8.220;2022-11-21T01:56:21;18.10;;;11.70;;
7657;SDS011;8462;53.156;8.220;2022-11-21T01:58:53;18.60;;;10.87;;
7657;SDS011;8462;53.156;8.220;2022-11-21T02:01:23;18.23;;;11.20;;
7657;SDS011;8462;53.156;8.220;2022-11-21T02:03:50;17.20;;;11.40;;
7657;SDS011;8462;53.156;8.220;2022-11-21T02:06:17;17.57;;;11.17;;
7657;SDS011;8462;53.156;8.220;2022-11-21T02:08:44;17.40;;;10.57;;
7657;SDS011;8462;53.156;8.220;2022-11-21T02:11:15;20.37;;;12.43;;
7657;SDS011;8462;53.156;8.220;2022-11-21T02:13:46;21.03;;;11.33;;
7657;SDS011;8462;53.156;8.220;2022-11-21T02:16:14;16.97;;;11.00;;
7657;SDS011;8462;53.156;8.220;2022-11-21T02:18:42;17.53;;;9.73;;
7657;SDS011;8462;53.156;8.220;2022-11-21T02:21:12;18.63;;;10.57;;
7657;SDS011;8462;53.156;8.220;2022-11-21T02:23:46;17.37;;;10.43;;
7657;SDS011;8462;53.156;8.220;2022-11-21T02:26:18;15.50;;;10.80;;
7657;SDS011;8462;53.156;8.220;2022-11-21T02:28:45;16.60;;;11.57;;
7657;SDS011;8462;53.156;8.220;2022-11-21T02:31:12;14.63;;;10.87;;
7657;SDS011;8462;53.156;8.220;2022-11-21T02:33:39;17.93;;;10.47;;
7657;SDS011;8462;53.156;8.220;2022-11-21T02:39:15;15.60;;;10.90;;
7657;SDS011;8462;53.156;8.220;2022-11-21T02:41:51;18.33;;;11.07;;
7657;SDS011;8462;53.156;8.220;2022-11-21T02:44:27;15.13;;;9.63;;
7657;SDS011;8462;53.156;8.220;2022-11-21T02:47:00;17.50;;;10.53;;
7657;SDS011;8462;53.156;8.220;2022-11-21T02:49:29;19.57;;;11.77;;
7657;SDS011;8462;53.156;8.220;2022-11-21T02:52:03;17.63;;;11.03;;
7657;SDS011;8462;53.156;8.220;2022-11-21T02:54:30;18.13;;;11.47;;
7657;SDS011;8462;53.156;8.220;2022-11-21T02:56:58;18.13;;;11.07;;
7657;SDS011;8462;53.156;8.220;2022-11-21T02:59:25;17.73;;;11.00;;
7657;SDS011;8462;53.156;8.220;2022-11-21T03:01:52;17.43;;;11.13;;
7657;SDS011;8462;53.156;8.220;2022-11-21T03:04:21;21.47;;;12.00;;
7657;SDS011;8462;53.156;8.220;2022-11-21T03:06:48;18.93;;;11.30;;
7657;SDS011;8462;53.156;8.220;2022-11-21T03:09:15;15.17;;;10.37;;
7657;SDS011;8462;53.156;8.220;2022-11-21T03:11:42;17.57;;;10.53;;
7657;SDS011;8462;53.156;8.220;2022-11-21T03:14:10;19.67;;;11.67;;
7657;SDS011;8462;53.156;8.220;2022-11-21T03:16:37;17.40;;;11.13;;
7657;SDS011;8462;53.156;8.220;2022-11-21T03:19:04;17.13;;;10.57;;
7657;SDS011;8462;53.156;8.220;2022-11-21T03:21:30;19.60;;;11.07;;
7657;SDS011;8462;53.156;8.220;2022-11-21T03:23:57;19.80;;;10.97;;
7657;SDS011;8462;53.156;8.220;2022-11-21T03:26:24;19.80;;;11.53;;
7657;SDS011;8462;53.156;8.220;2022-11-21T03:28:51;20.17;;;11.00;;
7657;SDS011;8462;53.156;8.220;2022-11-21T03:31:19;20.90;;;11.30;;
7657;SDS011;8462;53.156;8.220;2022-11-21T03:33:46;19.93;;;11.60;;
7657;SDS011;8462;53.156;8.220;2022-11-21T03:36:13;18.37;;;10.80;;
7657;SDS011;8462;53.156;8.220;2022-11-21T03:38:40;19.23;;;11.50;;
7657;SDS011;8462;53.156;8.220;2022-11-21T03:41:06;21.20;;;11.03;;
7657;SDS011;8462;53.156;8.220;2022-11-21T03:43:53;17.80;;;10.53;;
7657;SDS011;8462;53.156;8.220;2022-11-21T03:46:21;18.80;;;11.17;;
7657;SDS011;8462;53.156;8.220;2022-11-21T03:48:48;17.27;;;10.97;;
7657;SDS011;8462;53.156;8.220;2022-11-21T03:51:15;18.57;;;11.30;;
7657;SDS011;8462;53.156;8.220;2022-11-21T03:53:42;18.33;;;10.70;;
7657;SDS011;8462;53.156;8.220;2022-11-21T03:56:09;20.83;;;11.53;;
7657;SDS011;8462;53.156;8.220;2022-11-21T03:58:36;20.67;;;11.50;;
7657;SDS011;8462;53.156;8.220;2022-11-21T04:01:03;19.17;;;11.10;;
7657;SDS011;8462;53.156;8.220;2022-11-21T04:03:32;17.30;;;10.67;;
7657;SDS011;8462;53.156;8.220;2022-11-21T04:05:59;16.47;;;10.70;;
7657;SDS011;8462;53.156;8.220;2022-11-21T04:08:26;16.70;;;11.63;;
7657;SDS011;8462;53.156;8.220;2022-11-21T04:10:53;19.83;;;11.73;;
7657;SDS011;8462;53.156;8.220;2022-11-21T04:13:20;18.73;;;11.60;;
7657;SDS011;8462;53.156;8.220;2022-11-21T04:15:47;17.73;;;11.33;;
7657;SDS011;8462;53.156;8.220;2022-11-21T04:18:14;19.53;;;11.70;;
7657;SDS011;8462;53.156;8.220;2022-11-21T04:20:42;18.87;;;12.70;;
7657;SDS011;8462;53.156;8.220;2022-11-21T04:23:09;18.37;;;11.20;;
7657;SDS011;8462;53.156;8.220;2022-11-21T04:25:36;21.30;;;10.77;;
7657;SDS011;8462;53.156;8.220;2022-11-21T04:28:03;18.40;;;11.57;;
7657;SDS011;8462;53.156;8.220;2022-11-21T04:30:31;17.43;;;10.80;;
7657;SDS011;8462;53.156;8.220;2022-11-21T04:32:58;18.97;;;11.47;;
7657;SDS011;8462;53.156;8.220;2022-11-21T04:35:26;19.00;;;10.77;;
7657;SDS011;8462;53.156;8.220;2022-11-21T04:37:54;18.13;;;11.13;;
7657;SDS011;8462;53.156;8.220;2022-11-21T04:40:21;21.27;;;11.37;;
7657;SDS011;8462;53.156;8.220;2022-11-21T04:42:48;24.67;;;12.47;;
7657;SDS011;8462;53.156;8.220;2022-11-21T04:45:15;15.87;;;11.17;;
7657;SDS011;8462;53.156;8.220;2022-11-21T04:47:43;21.37;;;13.30;;
7657;SDS011;8462;53.156;8.220;2022-11-21T04:50:11;17.80;;;12.10;;
7657;SDS011;8462;53.156;8.220;2022-11-21T04:52:40;23.57;;;13.37;;
7657;SDS011;8462;53.156;8.220;2022-11-21T04:55:09;18.07;;;11.43;;
7657;SDS011;8462;53.156;8.220;2022-11-21T04:57:36;17.57;;;10.63;;
7657;SDS011;8462;53.156;8.220;2022-11-21T05:00:03;16.87;;;11.23;;
7657;SDS011;8462;53.156;8.220;2022-11-21T05:02:31;18.23;;;10.90;;
7657;SDS011;8462;53.156;8.220;2022-11-21T05:04:58;16.47;;;11.67;;
7657;SDS011;8462;53.156;8.220;2022-11-21T05:07:29;18.40;;;11.47;;
7657;SDS011;8462;53.156;8.220;2022-11-21T05:09:56;16.50;;;11.07;;
7657;SDS011;8462;53.156;8.220;2022-11-21T05:12:25;21.60;;;11.70;;
7657;SDS011;8462;53.156;8.220;2022-11-21T05:15:09;18.47;;;11.03;;
7657;SDS011;8462;53.156;8.220;2022-11-21T05:17:37;19.33;;;11.90;;
7657;SDS011;8462;53.156;8.220;2022-11-21T05:20:05;20.40;;;12.33;;
7657;SDS011;8462;53.156;8.220;2022-11-21T05:22:33;20.27;;;11.07;;
7657;SDS011;8462;53.156;8.220;2022-11-21T05:25:00;18.50;;;10.83;;
7657;SDS011;8462;53.156;8.220;2022-11-21T05:27:28;18.80;;;11.37;;
7657;SDS011;8462;53.156;8.220;2022-11-21T05:29:55;16.63;;;11.17;;
7657;SDS011;8462;53.156;8.220;2022-11-21T05:32:22;16.13;;;10.80;;
7657;SDS011;8462;53.156;8.220;2022-11-21T05:34:49;18.67;;;10.87;;
7657;SDS011;8462;53.156;8.220;2022-11-21T05:37:16;19.33;;;11.90;;
7657;SDS011;8462;53.156;8.220;2022-11-21T05:39:43;18.93;;;10.90;;
7657;SDS011;8462;53.156;8.220;2022-11-21T05:42:10;18.67;;;10.60;;
7657;SDS011;8462;53.156;8.220;2022-11-21T05:44:38;16.73;;;10.57;;
7657;SDS011;8462;53.156;8.220;2022-11-21T05:47:04;15.47;;;10.23;;
7657;SDS011;8462;53.156;8.220;2022-11-21T05:49:31;19.43;;;11.47;;
7657;SDS011;8462;53.156;8.220;2022-11-21T05:51:58;19.33;;;11.53;;
7657;SDS011;8462;53.156;8.220;2022-11-21T05:54:24;20.67;;;11.57;;
7657;SDS011;8462;53.156;8.220;2022-11-21T05:56:51;16.80;;;10.80;;
7657;SDS011;8462;53.156;8.220;2022-11-21T05:59:18;19.13;;;11.53;;
7657;SDS011;8462;53.156;8.220;2022-11-21T06:01:47;24.37;;;12.57;;
7657;SDS011;8462;53.156;8.220;2022-11-21T06:04:31;18.83;;;11.33;;
7657;SDS011;8462;53.156;8.220;2022-11-21T06:06:59;19.17;;;12.60;;
7657;SDS011;8462;53.156;8.220;2022-11-21T06:09:26;16.67;;;11.13;;
7657;SDS011;8462;53.156;8.220;2022-11-21T06:11:53;17.47;;;11.00;;
7657;SDS011;8462;53.156;8.220;2022-11-21T06:14:20;17.27;;;11.23;;
7657;SDS011;8462;53.156;8.220;2022-11-21T06:16:48;20.63;;;10.53;;
7657;SDS011;8462;53.156;8.220;2022-11-21T06:19:15;18.27;;;10.47;;
7657;SDS011;8462;53.156;8.220;2022-11-21T06:21:42;20.83;;;11.47;;
7657;SDS011;8462;53.156;8.220;2022-11-21T06:24:09;18.60;;;11.37;;
7657;SDS011;8462;53.156;8.220;2022-11-21T06:26:37;24.80;;;12.37;;
7657;SDS011;8462;53.156;8.220;2022-11-21T06:29:04;19.00;;;11.80;;
7657;SDS011;8462;53.156;8.220;2022-11-21T06:31:30;18.97;;;11.77;;
7657;SDS011;8462;53.156;8.220;2022-11-21T06:33:59;20.83;;;12.30;;
7657;SDS011;8462;53.156;8.220;2022-11-21T06:36:26;23.03;;;12.97;;
7657;SDS011;8462;53.156;8.220;2022-11-21T06:38:53;18.50;;;12.70;;
7657;SDS011;8462;53.156;8.220;2022-11-21T06:41:21;21.57;;;13.53;;
7657;SDS011;8462;53.156;8.220;2022-11-21T06:43:48;21.90;;;12.53;;
7657;SDS011;8462;53.156;8.220;2022-11-21T06:46:15;24.00;;;15.43;;
7657;SDS011;8462;53.156;8.220;2022-11-21T06:48:43;22.83;;;14.03;;
7657;SDS011;8462;53.156;8.220;2022-11-21T06:51:12;23.53;;;13.03;;
7657;SDS011;8462;53.156;8.220;2022-11-21T06:53:43;24.73;;;12.90;;
7657;SDS011;8462;53.156;8.220;2022-11-21T06:56:11;28.67;;;14.97;;
7657;SDS011;8462;53.156;8.220;2022-11-21T06:58:38;20.93;;;13.17;;
7657;SDS011;8462;53.156;8.220;2022-11-21T07:01:05;21.20;;;11.87;;
7657;SDS011;8462;53.156;8.220;2022-11-21T07:03:33;18.13;;;11.93;;
7657;SDS011;8462;53.156;8.220;2022-11-21T07:06:02;16.40;;;10.67;;
7657;SDS011;8462;53.156;8.220;2022-11-21T07:08:31;19.87;;;12.10;;
7657;SDS011;8462;53.156;8.220;2022-11-21T07:11:00;22.00;;;13.47;;
7657;SDS011;8462;53.156;8.220;2022-11-21T07:13:29;19.17;;;11.93;;
7657;SDS011;8462;53.156;8.220;2022-11-21T07:15:59;24.23;;;13.03;;
7657;SDS011;8462;53.156;8.220;2022-11-21T07:18:27;22.97;;;13.87;;
7657;SDS011;8462;53.156;8.220;2022-11-21T07:20:56;27.10;;;13.23;;
7657;SDS011;8462;53.156;8.220;2022-11-21T07:23:24;25.83;;;15.37;;
7657;SDS011;8462;53.156;8.220;2022-11-21T07:25:52;33.33;;;20.00;;
7657;SDS011;8462;53.156;8.220;2022-11-21T07:28:19;27.53;;;16.40;;
7657;SDS011;8462;53.156;8.220;2022-11-21T07:30:47;24.20;;;13.97;;
7657;SDS011;8462;53.156;8.220;2022-11-21T07:33:14;26.37;;;14.00;;
7657;SDS011;8462;53.156;8.220;2022-11-21T07:35:41;24.23;;;12.87;;
7657;SDS011;8462;53.156;8.220;2022-11-21T07:38:11;29.83;;;13.47;;
7657;SDS011;8462;53.156;8.220;2022-11-21T07:40:38;25.93;;;13.47;;
7657;SDS011;8462;53.156;8.220;2022-11-21T07:43:06;22.83;;;12.83;;
7657;SDS011;8462;53.156;8.220;2022-11-21T07:45:33;20.10;;;12.43;;
7657;SDS011;8462;53.156;8.220;2022-11-21T07:48:00;18.90;;;12.37;;
7657;SDS011;8462;53.156;8.220;2022-11-21T07:50:30;22.40;;;13.07;;
7657;SDS011;8462;53.156;8.220;2022-11-21T07:52:57;24.07;;;15.20;;
7657;SDS011;8462;53.156;8.220;2022-11-21T07:55:25;23.33;;;12.87;;
7657;SDS011;8462;53.156;8.220;2022-11-21T07:57:57;27.13;;;13.33;;
7657;SDS011;8462;53.156;8.220;2022-11-21T08:00:26;22.20;;;12.30;;
7657;SDS011;8462;53.156;8.220;2022-11-21T08:02:54;19.83;;;12.10;;
7657;SDS011;8462;53.156;8.220;2022-11-21T08:05:21;23.93;;;12.63;;
7657;SDS011;8462;53.156;8.220;2022-11-21T08:07:48;18.37;;;12.20;;
7657;SDS011;8462;53.156;8.220;2022-11-21T08:10:15;21.73;;;12.43;;
7657;SDS011;8462;53.156;8.220;2022-11-21T08:12:42;22.40;;;14.03;;
7657;SDS011;8462;53.156;8.220;2022-11-21T08:15:10;24.07;;;13.50;;
7657;SDS011;8462;53.156;8.220;2022-11-21T08:17:38;22.60;;;12.83;;
7657;SDS011;8462;53.156;8.220;2022-11-21T08:20:06;19.80;;;12.37;;
7657;SDS011;8462;53.156;8.220;2022-11-21T08:22:36;19.40;;;12.57;;
7657;SDS011;8462;53.156;8.220;2022-11-21T08:25:05;20.07;;;13.03;;
7657;SDS011;8462;53.156;8.220;2022-11-21T08:27:33;21.30;;;12.77;;
7657;SDS011;8462;53.156;8.220;2022-11-21T08:30:00;21.40;;;12.73;;
7657;SDS011;8462;53.156;8.220;2022-11-21T08:32:27;23.47;;;13.53;;
7657;SDS011;8462;53.156;8.220;2022-11-21T08:34:56;22.53;;;12.93;;
7657;SDS011;8462;53.156;8.220;2022-11-21T08:37:22;23.00;;;13.27;;
7657;SDS011;8462;53.156;8.220;2022-11-21T08:39:49;22.80;;;13.87;;
7657;SDS011;8462;53.156;8.220;2022-11-21T08:42:16;21.63;;;13.23;;
7657;SDS011;8462;53.156;8.220;2022-11-21T08:44:43;20.13;;;13.10;;
7657;SDS011;8462;53.156;8.220;2022-11-21T08:47:10;19.17;;;13.73;;
7657;SDS011;8462;53.156;8.220;2022-11-21T08:49:37;29.07;;;17.83;;
7657;SDS011;8462;53.156;8.220;2022-11-21T08:52:06;23.40;;;13.87;;
7657;SDS011;8462;53.156;8.220;2022-11-21T08:54:33;17.90;;;13.10;;
7657;SDS011;8462;53.156;8.220;2022-11-21T08:56:59;27.77;;;15.23;;
7657;SDS011;8462;53.156;8.220;2022-11-21T08:59:27;24.80;;;14.20;;
7657;SDS011;8462;53.156;8.220;2022-11-21T09:01:54;21.63;;;13.83;;
7657;SDS011;8462;53.156;8.220;2022-11-21T09:04:21;20.60;;;13.33;;
7657;SDS011;8462;53.156;8.220;2022-11-21T09:06:49;20.70;;;12.80;;
7657;SDS011;8462;53.156;8.220;2022-11-21T09:09:17;20.23;;;12.30;;
7657;SDS011;8462;53.156;8.220;2022-11-21T09:11:44;24.40;;;13.80;;
7657;SDS011;8462;53.156;8.220;2022-11-21T09:14:11;19.93;;;12.60;;
7657;SDS011;8462;53.156;8.220;2022-11-21T09:16:56;19.77;;;13.30;;
7657;SDS011;8462;53.156;8.220;2022-11-21T09:19:40;24.30;;;13.57;;
7657;SDS011;8462;53.156;8.220;2022-11-21T09:22:07;20.80;;;13.00;;
7657;SDS011;8462;53.156;8.220;2022-11-21T09:24:35;18.30;;;12.43;;
7657;SDS011;8462;53.156;8.220;2022-11-21T09:27:02;26.03;;;12.53;;
7657;SDS011;8462;53.156;8.220;2022-11-21T09:29:29;19.13;;;11.80;;
7657;SDS011;8462;53.156;8.220;2022-11-21T09:31:56;21.63;;;12.80;;
7657;SDS011;8462;53.156;8.220;2022-11-21T09:34:23;20.33;;;12.40;;
7657;SDS011;8462;53.156;8.220;2022-11-21T09:36:51;21.83;;;12.80;;
7657;SDS011;8462;53.156;8.220;2022-11-21T09:39:18;20.00;;;12.33;;
7657;SDS011;8462;53.156;8.220;2022-11-21T09:41:49;20.90;;;13.30;;
7657;SDS011;8462;53.156;8.220;2022-11-21T09:44:30;20.97;;;12.47;;
7657;SDS011;8462;53.156;8.220;2022-11-21T09:47:20;17.57;;;10.87;;
7657;SDS011;8462;53.156;8.220;2022-11-21T09:49:52;19.73;;;12.37;;
7657;SDS011;8462;53.156;8.220;2022-11-21T09:52:23;19.03;;;13.13;;
7657;SDS011;8462;53.156;8.220;2022-11-21T09:55:02;18.97;;;11.50;;
7657;SDS011;8462;53.156;8.220;2022-11-21T09:57:33;19.57;;;12.43;;
7657;SDS011;8462;53.156;8.220;2022-11-21T10:00:02;18.60;;;11.73;;
7657;SDS011;8462;53.156;8.220;2022-11-21T10:02:39;19.97;;;12.90;;
7657;SDS011;8462;53.156;8.220;2022-11-21T10:05:10;18.43;;;12.13;;
7657;SDS011;8462;53.156;8.220;2022-11-21T10:07:38;18.67;;;12.10;;
7657;SDS011;8462;53.156;8.220;2022-11-21T10:13:04;18.20;;;12.77;;
7657;SDS011;8462;53.156;8.220;2022-11-21T10:15:46;19.10;;;11.53;;
7657;SDS011;8462;53.156;8.220;2022-11-21T10:18:34;15.83;;;10.90;;
7657;SDS011;8462;53.156;8.220;2022-11-21T10:21:24;19.80;;;12.30;;
7657;SDS011;8462;53.156;8.220;2022-11-21T10:24:14;22.13;;;12.97;;
7657;SDS011;8462;53.156;8.220;2022-11-21T10:26:55;18.63;;;11.50;;
7657;SDS011;8462;53.156;8.220;2022-11-21T10:29:28;20.27;;;11.87;;
7657;SDS011;8462;53.156;8.220;2022-11-21T10:32:00;21.37;;;11.87;;
7657;SDS011;8462;53.156;8.220;2022-11-21T10:34:36;17.33;;;11.37;;
7657;SDS011;8462;53.156;8.220;2022-11-21T10:37:06;20.67;;;12.63;;
7657;SDS011;8462;53.156;8.220;2022-11-21T10:39:39;18.83;;;12.27;;
7657;SDS011;8462;53.156;8.220;2022-11-21T10:42:10;18.47;;;12.03;;
7657;SDS011;8462;53.156;8.220;2022-11-21T10:44:43;19.33;;;11.40;;
7657;SDS011;8462;53.156;8.220;2022-11-21T10:47:30;18.13;;;10.80;;
7657;SDS011;8462;53.156;8.220;2022-11-21T10:50:03;16.53;;;10.97;;
7657;SDS011;8462;53.156;8.220;2022-11-21T10:52:42;16.57;;;10.37;;
7657;SDS011;8462;53.156;8.220;2022-11-21T10:55:14;16.03;;;10.33;;
7657;SDS011;8462;53.156;8.220;2022-11-21T10:57:45;15.07;;;9.93;;
7657;SDS011;8462;53.156;8.220;2022-11-21T11:00:16;16.50;;;10.43;;
7657;SDS011;8462;53.156;8.220;2022-11-21T11:03:03;18.03;;;10.43;;
7657;SDS011;8462;53.156;8.220;2022-11-21T11:05:32;13.20;;;9.20;;
7657;SDS011;8462;53.156;8.220;2022-11-21T11:08:02;15.20;;;9.23;;
7657;SDS011;8462;53.156;8.220;2022-11-21T11:10:32;13.50;;;8.70;;
7657;SDS011;8462;53.156;8.220;2022-11-21T11:13:00;10.83;;;7.27;;
7657;SDS011;8462;53.156;8.220;2022-11-21T11:15:53;10.40;;;6.37;;
7657;SDS011;8462;53.156;8.220;2022-11-21T11:18:25;10.60;;;6.43;;
7657;SDS011;8462;53.156;8.220;2022-11-21T11:20:52;8.63;;;5.77;;
7657;SDS011;8462;53.156;8.220;2022-11-21T11:23:29;8.10;;;5.93;;
7657;SDS011;8462;53.156;8.220;2022-11-21T11:25:58;7.33;;;5.53;;
7657;SDS011;8462;53.156;8.220;2022-11-21T11:28:35;8.77;;;5.90;;
7657;SDS011;8462;53.156;8.220;2022-11-21T11:31:03;8.90;;;5.33;;
7657;SDS011;8462;53.156;8.220;2022-11-21T11:33:32;7.90;;;5.27;;
7657;SDS011;8462;53.156;8.220;2022-11-21T11:36:14;7.83;;;4.67;;
7657;SDS011;8462;53.156;8.220;2022-11-21T11:38:50;10.13;;;6.47;;
7657;SDS011;8462;53.156;8.220;2022-11-21T11:41:25;8.23;;;5.07;;
7657;SDS011;8462;53.156;8.220;2022-11-21T11:44:23;6.37;;;5.07;;
7657;SDS011;8462;53.156;8.220;2022-11-21T11:47:16;7.43;;;5.50;;
7657;SDS011;8462;53.156;8.220;2022-11-21T11:49:57;8.17;;;5.27;;
7657;SDS011;8462;53.156;8.220;2022-11-21T11:52:39;12.60;;;4.83;;
7657;SDS011;8462;53.156;8.220;2022-11-21T11:55:13;10.10;;;5.77;;
7657;SDS011;8462;53.156;8.220;2022-11-21T11:57:44;8.83;;;5.17;;
7657;SDS011;8462;53.156;8.220;2022-11-21T12:00:19;7.73;;;5.20;;
7657;SDS011;8462;53.156;8.220;2022-11-21T12:02:56;10.80;;;5.63;;
7657;SDS011;8462;53.156;8.220;2022-11-21T12:05:27;8.97;;;5.43;;
7657;SDS011;8462;53.156;8.220;2022-11-21T12:08:01;7.77;;;5.60;;
7657;SDS011;8462;53.156;8.220;2022-11-21T12:10:32;6.23;;;4.70;;
7657;SDS011;8462;53.156;8.220;2022-11-21T12:13:24;8.30;;;4.97;;
7657;SDS011;8462;53.156;8.220;2022-11-21T12:15:53;9.60;;;5.30;;
7657;SDS011;8462;53.156;8.220;2022-11-21T12:18:29;5.50;;;4.27;;
7657;SDS011;8462;53.156;8.220;2022-11-21T12:21:01;7.33;;;4.80;;
7657;SDS011;8462;53.156;8.220;2022-11-21T12:23:30;5.33;;;3.60;;
7657;SDS011;8462;53.156;8.220;2022-11-21T12:26:05;8.03;;;4.53;;
7657;SDS011;8462;53.156;8.220;2022-11-21T12:28:48;6.77;;;4.60;;
7657;SDS011;8462;53.156;8.220;2022-11-21T12:31:26;7.10;;;4.23;;
7657;SDS011;8462;53.156;8.220;2022-11-21T12:34:06;7.50;;;4.40;;
7657;SDS011;8462;53.156;8.220;2022-11-21T12:36:42;7.93;;;5.00;;
7657;SDS011;8462;53.156;8.220;2022-11-21T12:42:20;8.77;;;5.67;;
7657;SDS011;8462;53.156;8.220;2022-11-21T12:45:26;11.37;;;6.53;;
7657;SDS011;8462;53.156;8.220;2022-11-21T12:51:16;10.20;;;5.60;;
7657;SDS011;8462;53.156;8.220;2022-11-21T12:54:33;9.13;;;5.53;;
7657;SDS011;8462;53.156;8.220;2022-11-21T12:57:25;8.70;;;5.80;;
7657;SDS011;8462;53.156;8.220;2022-11-21T13:00:00;11.73;;;6.80;;
7657;SDS011;8462;53.156;8.220;2022-11-21T13:02:37;10.00;;;6.50;;
7657;SDS011;8462;53.156;8.220;2022-11-21T13:05:23;11.30;;;7.10;;
7657;SDS011;8462;53.156;8.220;2022-11-21T13:07:54;11.77;;;7.00;;
7657;SDS011;8462;53.156;8.220;2022-11-21T13:10:27;11.67;;;6.83;;
7657;SDS011;8462;53.156;8.220;2022-11-21T13:12:57;13.30;;;8.20;;
7657;SDS011;8462;53.156;8.220;2022-11-21T13:15:28;10.67;;;6.73;;
7657;SDS011;8462;53.156;8.220;2022-11-21T13:18:01;10.13;;;6.70;;
7657;SDS011;8462;53.156;8.220;2022-11-21T13:20:44;12.63;;;6.57;;
7657;SDS011;8462;53.156;8.220;2022-11-21T13:29:06;9.47;;;6.37;;
7657;SDS011;8462;53.156;8.220;2022-11-21T13:31:33;10.13;;;6.33;;
7657;SDS011;8462;53.156;8.220;2022-11-21T13:34:01;11.23;;;6.60;;
7657;SDS011;8462;53.156;8.220;2022-11-21T13:36:38;9.50;;;6.53;;
7657;SDS011;8462;53.156;8.220;2022-11-21T13:42:04;9.90;;;6.50;;
7657;SDS011;8462;53.156;8.220;2022-11-21T13:44:50;10.53;;;6.30;;
7657;SDS011;8462;53.156;8.220;2022-11-21T13:50:22;9.33;;;6.30;;
7657;SDS011;8462;53.156;8.220;2022-11-21T13:53:09;9.97;;;6.37;;
7657;SDS011;8462;53.156;8.220;2022-11-21T13:55:49;12.30;;;6.23;;
7657;SDS011;8462;53.156;8.220;2022-11-21T13:58:28;9.53;;;5.90;;
7657;SDS011;8462;53.156;8.220;2022-11-21T14:01:15;7.83;;;5.50;;
7657;SDS011;8462;53.156;8.220;2022-11-21T14:04:01;9.33;;;6.07;;
7657;SDS011;8462;53.156;8.220;2022-11-21T14:06:44;12.87;;;5.90;;
7657;SDS011;8462;53.156;8.220;2022-11-21T14:09:24;11.47;;;6.00;;
7657;SDS011;8462;53.156;8.220;2022-11-21T14:11:56;8.47;;;5.80;;
7657;SDS011;8462;53.156;8.220;2022-11-21T14:14:28;7.07;;;5.67;;
7657;SDS011;8462;53.156;8.220;2022-11-21T14:17:17;11.73;;;6.03;;
7657;SDS011;8462;53.156;8.220;2022-11-21T14:20:14;9.60;;;4.80;;
7657;SDS011;8462;53.156;8.220;2022-11-21T14:22:45;11.10;;;6.50;;
7657;SDS011;8462;53.156;8.220;2022-11-21T14:25:19;10.30;;;7.27;;
7657;SDS011;8462;53.156;8.220;2022-11-21T14:27:52;9.73;;;5.73;;
7657;SDS011;8462;53.156;8.220;2022-11-21T14:30:31;8.67;;;5.80;;
7657;SDS011;8462;53.156;8.220;2022-11-21T14:35:46;8.87;;;6.07;;
7657;SDS011;8462;53.156;8.220;2022-11-21T14:38:14;10.37;;;5.93;;
7657;SDS011;8462;53.156;8.220;2022-11-21T14:40:41;10.57;;;5.83;;
7657;SDS011;8462;53.156;8.220;2022-11-21T14:43:22;8.13;;;5.47;;
7657;SDS011;8462;53.156;8.220;2022-11-21T14:45:57;9.37;;;5.60;;
7657;SDS011;8462;53.156;8.220;2022-11-21T14:48:24;9.93;;;5.47;;
7657;SDS011;8462;53.156;8.220;2022-11-21T14:50:52;8.23;;;6.20;;
7657;SDS011;8462;53.156;8.220;2022-11-21T14:53:21;10.50;;;6.30;;
7657;SDS011;8462;53.156;8.220;2022-11-21T14:55:51;10.57;;;5.83;;
7657;SDS011;8462;53.156;8.220;2022-11-21T14:58:18;8.70;;;6.00;;
7657;SDS011;8462;53.156;8.220;2022-11-21T15:01:05;7.40;;;5.70;;
7657;SDS011;8462;53.156;8.220;2022-11-21T15:03:33;8.23;;;5.60;;
7657;SDS011;8462;53.156;8.220;2022-11-21T15:06:04;8.00;;;5.40;;
7657;SDS011;8462;53.156;8.220;2022-11-21T15:08:36;9.83;;;6.00;;
7657;SDS011;8462;53.156;8.220;2022-11-21T15:11:03;10.90;;;6.10;;
7657;SDS011;8462;53.156;8.220;2022-11-21T15:13:31;7.50;;;4.97;;
7657;SDS011;8462;53.156;8.220;2022-11-21T15:16:00;10.57;;;5.97;;
7657;SDS011;8462;53.156;8.220;2022-11-21T15:32:59;9.83;;;6.17;;
7657;SDS011;8462;53.156;8.220;2022-11-21T15:35:34;10.47;;;5.93;;
7657;SDS011;8462;53.156;8.220;2022-11-21T15:38:15;10.70;;;6.83;;
7657;SDS011;8462;53.156;8.220;2022-11-21T15:40:56;12.07;;;7.07;;
7657;SDS011;8462;53.156;8.220;2022-11-21T15:43:36;10.60;;;6.43;;
7657;SDS011;8462;53.156;8.220;2022-11-21T15:46:15;12.07;;;6.63;;
7657;SDS011;8462;53.156;8.220;2022-11-21T15:48:45;10.60;;;6.60;;
7657;SDS011;8462;53.156;8.220;2022-11-21T15:51:13;10.57;;;6.87;;
7657;SDS011;8462;53.156;8.220;2022-11-21T15:53:40;13.03;;;7.20;;
7657;SDS011;8462;53.156;8.220;2022-11-21T15:56:09;11.97;;;7.70;;